sensor_id;sensor_type;location;lat;lon;timestamp;P1;durP1;ratioP1;P2;durP2;ratioP2
25780;SDS011;13626;48.128;11.628;2022-11-23T00:00:29;3.17;;;2.05;;
25780;SDS011;13626;48.128;11.628;2022-11-23T00:02:57;3.30;;;2.17;;
25780;SDS011;13626;48.128;11.628;2022-11-23T00:05:25;3.88;;;2.10;;
25780;SDS011;13626;48.128;11.628;2022-11-23T00:07:52;5.22;;;2.25;;
25780;SDS011;13626;48.128;11.628;2022-11-23T00:10:19;4.28;;;2.10;;
25780;SDS011;13626;48.128;11.628;2022-11-23T00:12:46;3.10;;;2.33;;
25780;SDS011;13626;48.128;11.628;2022-11-23T00:15:14;4.20;;;2.75;;
25780;SDS011;13626;48.128;11.628;2022-11-23T00:17:41;3.63;;;2.08;;
25780;SDS011;13626;48.128;11.628;2022-11-23T00:20:08;5.00;;;2.10;;
25780;SDS011;13626;48.128;11.628;2022-11-23T00:22:36;4.15;;;2.13;;
25780;SDS011;13626;48.128;11.628;2022-11-23T00:25:03;3.20;;;2.15;;
25780;SDS011;13626;48.128;11.628;2022-11-23T00:27:30;3.05;;;2.03;;
25780;SDS011;13626;48.128;11.628;2022-11-23T00:29:57;4.90;;;2.05;;
25780;SDS011;13626;48.128;11.628;2022-11-23T00:32:25;4.75;;;2.25;;
25780;SDS011;13626;48.128;11.628;2022-11-23T00:34:52;4.85;;;2.10;;
25780;SDS011;13626;48.128;11.628;2022-11-23T00:37:19;2.47;;;2.10;;
25780;SDS011;13626;48.128;11.628;2022-11-23T00:39:46;4.32;;;2.38;;
25780;SDS011;13626;48.128;11.628;2022-11-23T00:42:13;4.15;;;2.35;;
25780;SDS011;13626;48.128;11.628;2022-11-23T00:44:41;3.65;;;2.00;;
25780;SDS011;13626;48.128;11.628;2022-11-23T00:47:08;2.80;;;1.85;;
25780;SDS011;13626;48.128;11.628;2022-11-23T00:49:35;3.17;;;2.13;;
25780;SDS011;13626;48.128;11.628;2022-11-23T00:52:02;4.55;;;2.42;;
25780;SDS011;13626;48.128;11.628;2022-11-23T00:54:29;4.10;;;2.22;;
25780;SDS011;13626;48.128;11.628;2022-11-23T00:56:56;3.33;;;2.30;;
25780;SDS011;13626;48.128;11.628;2022-11-23T00:59:24;4.35;;;2.50;;
25780;SDS011;13626;48.128;11.628;2022-11-23T01:01:51;4.88;;;2.35;;
25780;SDS011;13626;48.128;11.628;2022-11-23T01:04:18;3.80;;;2.40;;
25780;SDS011;13626;48.128;11.628;2022-11-23T01:06:45;5.32;;;2.40;;
25780;SDS011;13626;48.128;11.628;2022-11-23T01:09:14;7.28;;;2.47;;
25780;SDS011;13626;48.128;11.628;2022-11-23T01:11:43;4.57;;;2.50;;
25780;SDS011;13626;48.128;11.628;2022-11-23T01:14:10;4.13;;;2.80;;
25780;SDS011;13626;48.128;11.628;2022-11-23T01:16:38;3.97;;;2.80;;
25780;SDS011;13626;48.128;11.628;2022-11-23T01:19:15;7.68;;;3.72;;
25780;SDS011;13626;48.128;11.628;2022-11-23T01:21:43;6.85;;;3.88;;
25780;SDS011;13626;48.128;11.628;2022-11-23T01:24:14;7.63;;;4.10;;
25780;SDS011;13626;48.128;11.628;2022-11-23T01:26:41;3.72;;;2.72;;
25780;SDS011;13626;48.128;11.628;2022-11-23T01:29:12;5.15;;;3.15;;
25780;SDS011;13626;48.128;11.628;2022-11-23T01:31:39;3.78;;;2.70;;
25780;SDS011;13626;48.128;11.628;2022-11-23T01:34:12;6.40;;;2.65;;
25780;SDS011;13626;48.128;11.628;2022-11-23T01:36:40;4.15;;;2.25;;
25780;SDS011;13626;48.128;11.628;2022-11-23T01:39:07;3.60;;;2.20;;
25780;SDS011;13626;48.128;11.628;2022-11-23T01:41:35;3.92;;;2.22;;
25780;SDS011;13626;48.128;11.628;2022-11-23T01:44:22;2.35;;;2.15;;
25780;SDS011;13626;48.128;11.628;2022-11-23T01:46:49;4.32;;;2.20;;
25780;SDS011;13626;48.128;11.628;2022-11-23T01:49:16;7.15;;;2.60;;
25780;SDS011;13626;48.128;11.628;2022-11-23T01:51:44;4.93;;;2.15;;
25780;SDS011;13626;48.128;11.628;2022-11-23T01:54:14;3.60;;;2.42;;
25780;SDS011;13626;48.128;11.628;2022-11-23T01:56:45;5.82;;;2.47;;
25780;SDS011;13626;48.128;11.628;2022-11-23T01:59:15;3.60;;;2.15;;
25780;SDS011;13626;48.128;11.628;2022-11-23T02:01:42;4.18;;;2.38;;
25780;SDS011;13626;48.128;11.628;2022-11-23T02:04:10;4.70;;;2.60;;
25780;SDS011;13626;48.128;11.628;2022-11-23T02:06:39;3.92;;;2.25;;
25780;SDS011;13626;48.128;11.628;2022-11-23T02:09:06;5.40;;;2.78;;
25780;SDS011;13626;48.128;11.628;2022-11-23T02:11:33;4.10;;;2.42;;
25780;SDS011;13626;48.128;11.628;2022-11-23T02:14:00;3.83;;;2.60;;
25780;SDS011;13626;48.128;11.628;2022-11-23T02:16:28;4.03;;;2.60;;
25780;SDS011;13626;48.128;11.628;2022-11-23T02:18:55;3.70;;;2.45;;
25780;SDS011;13626;48.128;11.628;2022-11-23T02:21:22;3.65;;;2.08;;
25780;SDS011;13626;48.128;11.628;2022-11-23T02:24:06;4.15;;;2.40;;
25780;SDS011;13626;48.128;11.628;2022-11-23T02:26:37;7.18;;;2.25;;
25780;SDS011;13626;48.128;11.628;2022-11-23T02:29:10;3.13;;;2.20;;
25780;SDS011;13626;48.128;11.628;2022-11-23T02:31:39;3.85;;;2.05;;
25780;SDS011;13626;48.128;11.628;2022-11-23T02:34:06;4.15;;;2.25;;
25780;SDS011;13626;48.128;11.628;2022-11-23T02:36:38;4.10;;;2.20;;
25780;SDS011;13626;48.128;11.628;2022-11-23T02:39:13;2.63;;;1.90;;
25780;SDS011;13626;48.128;11.628;2022-11-23T02:41:48;2.85;;;1.92;;
25780;SDS011;13626;48.128;11.628;2022-11-23T02:47:01;2.58;;;1.80;;
25780;SDS011;13626;48.128;11.628;2022-11-23T02:49:29;3.92;;;2.00;;
25780;SDS011;13626;48.128;11.628;2022-11-23T02:51:57;3.38;;;2.00;;
25780;SDS011;13626;48.128;11.628;2022-11-23T02:54:24;3.35;;;1.95;;
25780;SDS011;13626;48.128;11.628;2022-11-23T02:56:51;5.18;;;2.10;;
25780;SDS011;13626;48.128;11.628;2022-11-23T02:59:18;5.03;;;1.92;;
25780;SDS011;13626;48.128;11.628;2022-11-23T03:01:46;2.65;;;1.80;;
25780;SDS011;13626;48.128;11.628;2022-11-23T03:04:13;2.53;;;2.00;;
25780;SDS011;13626;48.128;11.628;2022-11-23T03:06:41;4.88;;;2.10;;
25780;SDS011;13626;48.128;11.628;2022-11-23T03:09:08;3.03;;;1.95;;
25780;SDS011;13626;48.128;11.628;2022-11-23T03:11:36;3.30;;;1.88;;
25780;SDS011;13626;48.128;11.628;2022-11-23T03:14:03;2.67;;;1.70;;
25780;SDS011;13626;48.128;11.628;2022-11-23T03:16:30;4.40;;;2.20;;
25780;SDS011;13626;48.128;11.628;2022-11-23T03:18:58;3.58;;;1.98;;
25780;SDS011;13626;48.128;11.628;2022-11-23T03:21:26;3.03;;;1.90;;
25780;SDS011;13626;48.128;11.628;2022-11-23T03:23:53;4.57;;;1.90;;
25780;SDS011;13626;48.128;11.628;2022-11-23T03:26:20;4.65;;;2.17;;
25780;SDS011;13626;48.128;11.628;2022-11-23T03:28:48;2.85;;;2.03;;
25780;SDS011;13626;48.128;11.628;2022-11-23T03:31:15;3.30;;;1.90;;
25780;SDS011;13626;48.128;11.628;2022-11-23T03:33:42;6.88;;;2.08;;
25780;SDS011;13626;48.128;11.628;2022-11-23T03:36:09;3.67;;;2.10;;
25780;SDS011;13626;48.128;11.628;2022-11-23T03:38:36;4.93;;;2.00;;
25780;SDS011;13626;48.128;11.628;2022-11-23T03:41:04;3.83;;;1.92;;
25780;SDS011;13626;48.128;11.628;2022-11-23T03:43:31;3.60;;;1.67;;
25780;SDS011;13626;48.128;11.628;2022-11-23T03:45:58;3.83;;;1.77;;
25780;SDS011;13626;48.128;11.628;2022-11-23T03:48:25;2.63;;;1.50;;
25780;SDS011;13626;48.128;11.628;2022-11-23T03:50:52;4.22;;;1.70;;
25780;SDS011;13626;48.128;11.628;2022-11-23T03:53:19;2.55;;;1.80;;
25780;SDS011;13626;48.128;11.628;2022-11-23T03:55:47;3.00;;;1.67;;
25780;SDS011;13626;48.128;11.628;2022-11-23T03:58:14;2.20;;;1.85;;
25780;SDS011;13626;48.128;11.628;2022-11-23T04:00:41;3.60;;;1.83;;
25780;SDS011;13626;48.128;11.628;2022-11-23T04:03:09;2.05;;;1.60;;
25780;SDS011;13626;48.128;11.628;2022-11-23T04:05:36;3.47;;;2.00;;
25780;SDS011;13626;48.128;11.628;2022-11-23T04:08:03;4.40;;;2.13;;
25780;SDS011;13626;48.128;11.628;2022-11-23T04:10:30;2.63;;;1.60;;
25780;SDS011;13626;48.128;11.628;2022-11-23T04:12:58;1.55;;;1.40;;
25780;SDS011;13626;48.128;11.628;2022-11-23T04:15:25;5.50;;;2.10;;
25780;SDS011;13626;48.128;11.628;2022-11-23T04:17:53;2.75;;;1.75;;
25780;SDS011;13626;48.128;11.628;2022-11-23T04:20:20;2.88;;;1.52;;
25780;SDS011;13626;48.128;11.628;2022-11-23T04:22:47;4.30;;;1.70;;
25780;SDS011;13626;48.128;11.628;2022-11-23T04:25:14;2.75;;;1.70;;
25780;SDS011;13626;48.128;11.628;2022-11-23T04:27:41;3.58;;;1.80;;
25780;SDS011;13626;48.128;11.628;2022-11-23T04:30:09;2.67;;;1.50;;
25780;SDS011;13626;48.128;11.628;2022-11-23T04:32:36;2.50;;;1.92;;
25780;SDS011;13626;48.128;11.628;2022-11-23T04:35:03;6.82;;;1.70;;
25780;SDS011;13626;48.128;11.628;2022-11-23T04:37:30;2.60;;;1.45;;
25780;SDS011;13626;48.128;11.628;2022-11-23T04:39:58;2.78;;;1.92;;
25780;SDS011;13626;48.128;11.628;2022-11-23T04:42:25;2.22;;;1.60;;
25780;SDS011;13626;48.128;11.628;2022-11-23T04:44:52;3.05;;;1.80;;
25780;SDS011;13626;48.128;11.628;2022-11-23T04:47:19;4.35;;;1.73;;
25780;SDS011;13626;48.128;11.628;2022-11-23T04:49:47;4.82;;;2.75;;
25780;SDS011;13626;48.128;11.628;2022-11-23T04:52:14;3.22;;;2.03;;
25780;SDS011;13626;48.128;11.628;2022-11-23T04:54:41;4.20;;;1.95;;
25780;SDS011;13626;48.128;11.628;2022-11-23T04:57:08;2.60;;;1.70;;
25780;SDS011;13626;48.128;11.628;2022-11-23T04:59:36;4.57;;;1.92;;
25780;SDS011;13626;48.128;11.628;2022-11-23T05:02:03;4.70;;;1.73;;
25780;SDS011;13626;48.128;11.628;2022-11-23T05:04:30;4.57;;;1.80;;
25780;SDS011;13626;48.128;11.628;2022-11-23T05:06:57;4.22;;;1.70;;
25780;SDS011;13626;48.128;11.628;2022-11-23T05:09:24;2.88;;;1.92;;
25780;SDS011;13626;48.128;11.628;2022-11-23T05:11:51;2.85;;;1.58;;
25780;SDS011;13626;48.128;11.628;2022-11-23T05:14:18;3.75;;;1.60;;
25780;SDS011;13626;48.128;11.628;2022-11-23T05:16:46;2.53;;;1.90;;
25780;SDS011;13626;48.128;11.628;2022-11-23T05:19:13;1.92;;;1.52;;
25780;SDS011;13626;48.128;11.628;2022-11-23T05:21:40;3.85;;;1.70;;
25780;SDS011;13626;48.128;11.628;2022-11-23T05:24:07;1.80;;;1.48;;
25780;SDS011;13626;48.128;11.628;2022-11-23T05:26:34;3.20;;;1.70;;
25780;SDS011;13626;48.128;11.628;2022-11-23T05:29:02;2.08;;;1.40;;
25780;SDS011;13626;48.128;11.628;2022-11-23T05:31:29;3.33;;;1.50;;
25780;SDS011;13626;48.128;11.628;2022-11-23T05:33:56;4.65;;;1.80;;
25780;SDS011;13626;48.128;11.628;2022-11-23T05:36:23;5.13;;;1.80;;
25780;SDS011;13626;48.128;11.628;2022-11-23T05:38:50;4.30;;;1.83;;
25780;SDS011;13626;48.128;11.628;2022-11-23T05:41:18;2.88;;;1.33;;
25780;SDS011;13626;48.128;11.628;2022-11-23T05:43:45;2.55;;;1.75;;
25780;SDS011;13626;48.128;11.628;2022-11-23T05:46:12;2.72;;;1.60;;
25780;SDS011;13626;48.128;11.628;2022-11-23T05:48:40;1.98;;;1.45;;
25780;SDS011;13626;48.128;11.628;2022-11-23T05:51:07;1.75;;;1.45;;
25780;SDS011;13626;48.128;11.628;2022-11-23T05:53:34;2.55;;;1.52;;
25780;SDS011;13626;48.128;11.628;2022-11-23T05:56:01;2.30;;;1.35;;
25780;SDS011;13626;48.128;11.628;2022-11-23T05:58:29;2.17;;;1.65;;
25780;SDS011;13626;48.128;11.628;2022-11-23T06:00:59;3.78;;;1.88;;
25780;SDS011;13626;48.128;11.628;2022-11-23T06:03:26;4.63;;;1.58;;
25780;SDS011;13626;48.128;11.628;2022-11-23T06:05:54;2.95;;;2.20;;
25780;SDS011;13626;48.128;11.628;2022-11-23T06:08:21;3.25;;;1.60;;
25780;SDS011;13626;48.128;11.628;2022-11-23T06:10:49;2.50;;;2.08;;
25780;SDS011;13626;48.128;11.628;2022-11-23T06:13:16;4.00;;;2.33;;
25780;SDS011;13626;48.128;11.628;2022-11-23T06:15:43;6.57;;;2.97;;
25780;SDS011;13626;48.128;11.628;2022-11-23T06:18:10;5.05;;;3.08;;
25780;SDS011;13626;48.128;11.628;2022-11-23T06:20:37;6.57;;;3.45;;
25780;SDS011;13626;48.128;11.628;2022-11-23T06:23:04;6.13;;;3.47;;
25780;SDS011;13626;48.128;11.628;2022-11-23T06:25:31;5.63;;;2.67;;
25780;SDS011;13626;48.128;11.628;2022-11-23T06:27:59;2.85;;;2.30;;
25780;SDS011;13626;48.128;11.628;2022-11-23T06:30:27;4.07;;;1.98;;
25780;SDS011;13626;48.128;11.628;2022-11-23T06:32:56;5.65;;;2.80;;
25780;SDS011;13626;48.128;11.628;2022-11-23T06:35:23;6.38;;;3.05;;
25780;SDS011;13626;48.128;11.628;2022-11-23T06:37:50;4.43;;;2.60;;
25780;SDS011;13626;48.128;11.628;2022-11-23T06:40:19;3.83;;;2.65;;
25780;SDS011;13626;48.128;11.628;2022-11-23T06:42:46;3.45;;;2.38;;
25780;SDS011;13626;48.128;11.628;2022-11-23T06:45:14;4.05;;;2.35;;
25780;SDS011;13626;48.128;11.628;2022-11-23T06:47:41;3.30;;;2.35;;
25780;SDS011;13626;48.128;11.628;2022-11-23T06:50:09;5.85;;;2.10;;
25780;SDS011;13626;48.128;11.628;2022-11-23T06:52:36;2.92;;;2.00;;
25780;SDS011;13626;48.128;11.628;2022-11-23T06:55:03;2.60;;;2.05;;
25780;SDS011;13626;48.128;11.628;2022-11-23T06:57:31;5.53;;;2.35;;
25780;SDS011;13626;48.128;11.628;2022-11-23T06:59:58;3.83;;;2.00;;
25780;SDS011;13626;48.128;11.628;2022-11-23T07:02:25;3.25;;;1.65;;
25780;SDS011;13626;48.128;11.628;2022-11-23T07:04:52;5.47;;;2.08;;
25780;SDS011;13626;48.128;11.628;2022-11-23T07:07:19;8.73;;;2.65;;
25780;SDS011;13626;48.128;11.628;2022-11-23T07:09:47;3.25;;;1.92;;
25780;SDS011;13626;48.128;11.628;2022-11-23T07:12:14;6.25;;;2.40;;
25780;SDS011;13626;48.128;11.628;2022-11-23T07:14:41;2.20;;;1.75;;
25780;SDS011;13626;48.128;11.628;2022-11-23T07:17:08;3.63;;;1.58;;
25780;SDS011;13626;48.128;11.628;2022-11-23T07:19:42;4.32;;;1.65;;
25780;SDS011;13626;48.128;11.628;2022-11-23T07:22:09;4.18;;;1.50;;
25780;SDS011;13626;48.128;11.628;2022-11-23T07:24:36;3.67;;;1.90;;
25780;SDS011;13626;48.128;11.628;2022-11-23T07:27:10;4.70;;;1.80;;
25780;SDS011;13626;48.128;11.628;2022-11-23T07:29:37;2.88;;;1.80;;
25780;SDS011;13626;48.128;11.628;2022-11-23T07:32:04;3.30;;;2.00;;
25780;SDS011;13626;48.128;11.628;2022-11-23T07:34:33;3.95;;;1.75;;
25780;SDS011;13626;48.128;11.628;2022-11-23T07:37:00;5.53;;;1.88;;
25780;SDS011;13626;48.128;11.628;2022-11-23T07:39:29;5.68;;;2.22;;
25780;SDS011;13626;48.128;11.628;2022-11-23T07:42:16;5.03;;;2.00;;
25780;SDS011;13626;48.128;11.628;2022-11-23T07:45:04;5.53;;;2.00;;
25780;SDS011;13626;48.128;11.628;2022-11-23T07:47:31;4.53;;;1.80;;
25780;SDS011;13626;48.128;11.628;2022-11-23T07:49:59;6.55;;;2.20;;
25780;SDS011;13626;48.128;11.628;2022-11-23T07:52:26;8.57;;;2.33;;
25780;SDS011;13626;48.128;11.628;2022-11-23T07:54:53;5.32;;;2.05;;
25780;SDS011;13626;48.128;11.628;2022-11-23T07:57:21;6.82;;;2.30;;
25780;SDS011;13626;48.128;11.628;2022-11-23T07:59:48;7.72;;;2.50;;
25780;SDS011;13626;48.128;11.628;2022-11-23T08:02:15;3.70;;;2.15;;
25780;SDS011;13626;48.128;11.628;2022-11-23T08:04:42;2.78;;;2.13;;
25780;SDS011;13626;48.128;11.628;2022-11-23T08:07:09;4.07;;;2.30;;
25780;SDS011;13626;48.128;11.628;2022-11-23T08:09:37;4.20;;;1.70;;
25780;SDS011;13626;48.128;11.628;2022-11-23T08:12:04;4.10;;;1.90;;
25780;SDS011;13626;48.128;11.628;2022-11-23T08:14:32;5.85;;;1.50;;
25780;SDS011;13626;48.128;11.628;2022-11-23T08:17:00;4.78;;;1.95;;
25780;SDS011;13626;48.128;11.628;2022-11-23T08:19:27;6.10;;;1.85;;
25780;SDS011;13626;48.128;11.628;2022-11-23T08:21:54;5.85;;;1.80;;
25780;SDS011;13626;48.128;11.628;2022-11-23T08:24:21;4.65;;;1.65;;
25780;SDS011;13626;48.128;11.628;2022-11-23T08:26:48;3.92;;;1.75;;
25780;SDS011;13626;48.128;11.628;2022-11-23T08:29:15;5.03;;;1.98;;
25780;SDS011;13626;48.128;11.628;2022-11-23T08:31:42;4.05;;;1.73;;
25780;SDS011;13626;48.128;11.628;2022-11-23T08:34:10;5.18;;;2.00;;
25780;SDS011;13626;48.128;11.628;2022-11-23T08:36:37;5.53;;;2.13;;
25780;SDS011;13626;48.128;11.628;2022-11-23T08:39:04;12.00;;;2.50;;
25780;SDS011;13626;48.128;11.628;2022-11-23T08:41:32;5.35;;;2.13;;
25780;SDS011;13626;48.128;11.628;2022-11-23T08:43:59;2.70;;;1.40;;
25780;SDS011;13626;48.128;11.628;2022-11-23T08:46:27;3.80;;;1.90;;
25780;SDS011;13626;48.128;11.628;2022-11-23T08:48:54;4.55;;;1.95;;
25780;SDS011;13626;48.128;11.628;2022-11-23T08:51:21;3.80;;;1.95;;
25780;SDS011;13626;48.128;11.628;2022-11-23T08:53:49;3.08;;;1.58;;
25780;SDS011;13626;48.128;11.628;2022-11-23T08:56:16;5.47;;;1.70;;
25780;SDS011;13626;48.128;11.628;2022-11-23T08:58:43;3.97;;;1.50;;
25780;SDS011;13626;48.128;11.628;2022-11-23T09:01:14;4.28;;;1.40;;
25780;SDS011;13626;48.128;11.628;2022-11-23T09:03:42;3.20;;;1.70;;
25780;SDS011;13626;48.128;11.628;2022-11-23T09:06:10;4.32;;;2.15;;
25780;SDS011;13626;48.128;11.628;2022-11-23T09:08:37;3.33;;;1.70;;
25780;SDS011;13626;48.128;11.628;2022-11-23T09:11:05;6.63;;;1.80;;
25780;SDS011;13626;48.128;11.628;2022-11-23T09:13:34;6.82;;;2.28;;
25780;SDS011;13626;48.128;11.628;2022-11-23T09:16:02;3.92;;;1.30;;
25780;SDS011;13626;48.128;11.628;2022-11-23T09:18:30;1.75;;;1.15;;
25780;SDS011;13626;48.128;11.628;2022-11-23T09:21:00;4.65;;;1.75;;
25780;SDS011;13626;48.128;11.628;2022-11-23T09:23:27;2.65;;;1.30;;
25780;SDS011;13626;48.128;11.628;2022-11-23T09:25:57;2.92;;;1.30;;
25780;SDS011;13626;48.128;11.628;2022-11-23T09:28:24;2.22;;;1.38;;
25780;SDS011;13626;48.128;11.628;2022-11-23T09:30:54;3.88;;;1.50;;
25780;SDS011;13626;48.128;11.628;2022-11-23T09:33:21;5.95;;;1.48;;
25780;SDS011;13626;48.128;11.628;2022-11-23T09:35:58;3.78;;;1.67;;
25780;SDS011;13626;48.128;11.628;2022-11-23T09:38:26;1.85;;;1.23;;
25780;SDS011;13626;48.128;11.628;2022-11-23T09:44:00;5.20;;;1.70;;
25780;SDS011;13626;48.128;11.628;2022-11-23T09:51:27;2.92;;;1.55;;
25780;SDS011;13626;48.128;11.628;2022-11-23T09:53:59;2.38;;;1.50;;
25780;SDS011;13626;48.128;11.628;2022-11-23T09:56:29;1.92;;;1.40;;
25780;SDS011;13626;48.128;11.628;2022-11-23T09:59:00;4.55;;;1.50;;
25780;SDS011;13626;48.128;11.628;2022-11-23T10:01:28;3.22;;;1.45;;
25780;SDS011;13626;48.128;11.628;2022-11-23T10:03:56;2.95;;;1.35;;
25780;SDS011;13626;48.128;11.628;2022-11-23T10:06:25;3.45;;;1.33;;
25780;SDS011;13626;48.128;11.628;2022-11-23T10:14:10;2.75;;;1.13;;
25780;SDS011;13626;48.128;11.628;2022-11-23T10:24:17;2.05;;;1.20;;
25780;SDS011;13626;48.128;11.628;2022-11-23T10:26:48;2.42;;;1.20;;
25780;SDS011;13626;48.128;11.628;2022-11-23T10:29:19;3.10;;;0.98;;
25780;SDS011;13626;48.128;11.628;2022-11-23T10:31:48;4.22;;;1.10;;
25780;SDS011;13626;48.128;11.628;2022-11-23T10:36:52;2.90;;;0.93;;
25780;SDS011;13626;48.128;11.628;2022-11-23T10:39:23;2.58;;;1.00;;
25780;SDS011;13626;48.128;11.628;2022-11-23T10:41:50;2.47;;;1.10;;
25780;SDS011;13626;48.128;11.628;2022-11-23T10:44:23;3.72;;;1.38;;
25780;SDS011;13626;48.128;11.628;2022-11-23T10:46:51;2.67;;;1.08;;
25780;SDS011;13626;48.128;11.628;2022-11-23T10:54:29;4.78;;;1.48;;
25780;SDS011;13626;48.128;11.628;2022-11-23T10:56:58;2.67;;;0.90;;
25780;SDS011;13626;48.128;11.628;2022-11-23T11:02:00;2.90;;;1.02;;
25780;SDS011;13626;48.128;11.628;2022-11-23T11:04:27;4.00;;;0.90;;
25780;SDS011;13626;48.128;11.628;2022-11-23T11:09:40;2.35;;;0.80;;
25780;SDS011;13626;48.128;11.628;2022-11-23T11:12:15;1.60;;;0.77;;
25780;SDS011;13626;48.128;11.628;2022-11-23T11:14:55;3.05;;;0.70;;
25780;SDS011;13626;48.128;11.628;2022-11-23T11:17:36;2.30;;;0.80;;
25780;SDS011;13626;48.128;11.628;2022-11-23T11:22:50;4.63;;;0.90;;
25780;SDS011;13626;48.128;11.628;2022-11-23T11:25:27;3.40;;;0.85;;
25780;SDS011;13626;48.128;11.628;2022-11-23T11:27:56;2.25;;;0.70;;
25780;SDS011;13626;48.128;11.628;2022-11-23T11:30:24;1.17;;;0.70;;
25780;SDS011;13626;48.128;11.628;2022-11-23T11:32:54;2.53;;;0.65;;
25780;SDS011;13626;48.128;11.628;2022-11-23T11:35:30;2.72;;;0.85;;
25780;SDS011;13626;48.128;11.628;2022-11-23T11:38:04;1.73;;;0.85;;
25780;SDS011;13626;48.128;11.628;2022-11-23T11:40:36;3.85;;;0.98;;
25780;SDS011;13626;48.128;11.628;2022-11-23T11:43:06;4.72;;;0.80;;
25780;SDS011;13626;48.128;11.628;2022-11-23T11:45:39;2.75;;;0.88;;
25780;SDS011;13626;48.128;11.628;2022-11-23T11:48:29;3.92;;;1.00;;
25780;SDS011;13626;48.128;11.628;2022-11-23T11:53:37;4.53;;;1.33;;
25780;SDS011;13626;48.128;11.628;2022-11-23T11:56:11;4.63;;;1.08;;
25780;SDS011;13626;48.128;11.628;2022-11-23T11:58:42;3.10;;;0.85;;
25780;SDS011;13626;48.128;11.628;2022-11-23T12:06:37;1.80;;;0.68;;
25780;SDS011;13626;48.128;11.628;2022-11-23T12:09:16;2.78;;;0.75;;
25780;SDS011;13626;48.128;11.628;2022-11-23T12:11:45;3.53;;;0.95;;
25780;SDS011;13626;48.128;11.628;2022-11-23T12:14:12;5.28;;;1.13;;
25780;SDS011;13626;48.128;11.628;2022-11-23T12:21:51;2.00;;;0.80;;
25780;SDS011;13626;48.128;11.628;2022-11-23T12:27:42;2.65;;;0.65;;
25780;SDS011;13626;48.128;11.628;2022-11-23T12:36:04;2.83;;;1.00;;
25780;SDS011;13626;48.128;11.628;2022-11-23T12:39:00;3.60;;;0.60;;
25780;SDS011;13626;48.128;11.628;2022-11-23T12:42:08;4.57;;;1.80;;
25780;SDS011;13626;48.128;11.628;2022-11-23T12:44:47;3.00;;;0.88;;
25780;SDS011;13626;48.128;11.628;2022-11-23T12:49:58;3.35;;;0.80;;
25780;SDS011;13626;48.128;11.628;2022-11-23T12:58:21;2.80;;;0.77;;
25780;SDS011;13626;48.128;11.628;2022-11-23T13:01:01;1.08;;;0.50;;
25780;SDS011;13626;48.128;11.628;2022-11-23T13:09:56;3.70;;;1.08;;
25780;SDS011;13626;48.128;11.628;2022-11-23T13:12:38;3.63;;;0.93;;
25780;SDS011;13626;48.128;11.628;2022-11-23T13:23:18;4.63;;;0.70;;
25780;SDS011;13626;48.128;11.628;2022-11-23T13:28:51;3.92;;;0.90;;
25780;SDS011;13626;48.128;11.628;2022-11-23T13:31:30;1.60;;;0.50;;
25780;SDS011;13626;48.128;11.628;2022-11-23T13:36:58;3.38;;;0.80;;
25780;SDS011;13626;48.128;11.628;2022-11-23T13:42:19;3.85;;;1.30;;
25780;SDS011;13626;48.128;11.628;2022-11-23T13:53:21;4.05;;;1.30;;
25780;SDS011;13626;48.128;11.628;2022-11-23T14:00:56;3.13;;;1.00;;
25780;SDS011;13626;48.128;11.628;2022-11-23T14:11:35;3.75;;;0.98;;
25780;SDS011;13626;48.128;11.628;2022-11-23T14:14:12;3.35;;;1.13;;
25780;SDS011;13626;48.128;11.628;2022-11-23T14:16:53;4.03;;;1.20;;
25780;SDS011;13626;48.128;11.628;2022-11-23T14:22:20;2.97;;;1.20;;
25780;SDS011;13626;48.128;11.628;2022-11-23T14:32:57;2.33;;;1.20;;
25780;SDS011;13626;48.128;11.628;2022-11-23T14:35:40;3.45;;;1.10;;
25780;SDS011;13626;48.128;11.628;2022-11-23T14:38:29;3.90;;;1.17;;
25780;SDS011;13626;48.128;11.628;2022-11-23T14:41:06;2.80;;;1.00;;
25780;SDS011;13626;48.128;11.628;2022-11-23T14:43:34;1.67;;;0.90;;
25780;SDS011;13626;48.128;11.628;2022-11-23T14:46:03;5.97;;;1.30;;
25780;SDS011;13626;48.128;11.628;2022-11-23T14:48:33;2.67;;;1.23;;
25780;SDS011;13626;48.128;11.628;2022-11-23T14:53:30;5.40;;;1.30;;
25780;SDS011;13626;48.128;11.628;2022-11-23T14:55:58;2.25;;;1.25;;
25780;SDS011;13626;48.128;11.628;2022-11-23T14:58:26;4.35;;;1.67;;
25780;SDS011;13626;48.128;11.628;2022-11-23T15:00:57;4.55;;;1.42;;
25780;SDS011;13626;48.128;11.628;2022-11-23T15:03:26;3.40;;;1.55;;
25780;SDS011;13626;48.128;11.628;2022-11-23T15:06:15;6.20;;;2.00;;
25780;SDS011;13626;48.128;11.628;2022-11-23T15:08:44;2.58;;;1.55;;
25780;SDS011;13626;48.128;11.628;2022-11-23T15:11:16;1.63;;;1.25;;
25780;SDS011;13626;48.128;11.628;2022-11-23T15:13:47;3.78;;;1.63;;
25780;SDS011;13626;48.128;11.628;2022-11-23T15:16:15;3.92;;;1.83;;
25780;SDS011;13626;48.128;11.628;2022-11-23T15:18:43;4.25;;;1.83;;
25780;SDS011;13626;48.128;11.628;2022-11-23T15:23:41;7.25;;;2.47;;
25780;SDS011;13626;48.128;11.628;2022-11-23T15:26:30;8.32;;;2.45;;
25780;SDS011;13626;48.128;11.628;2022-11-23T15:32:26;5.00;;;2.30;;
25780;SDS011;13626;48.128;11.628;2022-11-23T15:35:03;5.20;;;2.50;;
25780;SDS011;13626;48.128;11.628;2022-11-23T15:37:32;5.75;;;2.35;;
25780;SDS011;13626;48.128;11.628;2022-11-23T15:40:03;5.78;;;2.33;;
25780;SDS011;13626;48.128;11.628;2022-11-23T15:42:31;4.75;;;2.22;;
25780;SDS011;13626;48.128;11.628;2022-11-23T15:44:59;4.75;;;2.55;;
25780;SDS011;13626;48.128;11.628;2022-11-23T15:47:26;4.82;;;2.03;;
25780;SDS011;13626;48.128;11.628;2022-11-23T15:49:58;6.55;;;2.30;;
25780;SDS011;13626;48.128;11.628;2022-11-23T15:52:27;5.60;;;2.65;;
25780;SDS011;13626;48.128;11.628;2022-11-23T15:54:55;7.32;;;3.05;;
25780;SDS011;13626;48.128;11.628;2022-11-23T15:57:23;8.57;;;3.42;;
25780;SDS011;13626;48.128;11.628;2022-11-23T16:00:00;6.40;;;3.05;;
25780;SDS011;13626;48.128;11.628;2022-11-23T16:02:28;7.07;;;2.75;;
25780;SDS011;13626;48.128;11.628;2022-11-23T16:07:30;6.72;;;2.50;;
25780;SDS011;13626;48.128;11.628;2022-11-23T16:10:15;4.07;;;2.40;;
25780;SDS011;13626;48.128;11.628;2022-11-23T16:12:47;10.95;;;2.88;;
25780;SDS011;13626;48.128;11.628;2022-11-23T16:17:55;5.03;;;3.47;;
25780;SDS011;13626;48.128;11.628;2022-11-23T16:20:23;8.23;;;3.63;;
25780;SDS011;13626;48.128;11.628;2022-11-23T16:22:50;9.23;;;3.67;;
25780;SDS011;13626;48.128;11.628;2022-11-23T16:30:25;8.82;;;4.13;;
25780;SDS011;13626;48.128;11.628;2022-11-23T16:32:53;10.00;;;3.92;;
25780;SDS011;13626;48.128;11.628;2022-11-23T16:35:20;7.88;;;3.60;;
25780;SDS011;13626;48.128;11.628;2022-11-23T16:37:47;7.57;;;3.20;;
25780;SDS011;13626;48.128;11.628;2022-11-23T16:40:14;6.10;;;3.42;;
25780;SDS011;13626;48.128;11.628;2022-11-23T16:42:42;6.30;;;3.58;;
25780;SDS011;13626;48.128;11.628;2022-11-23T16:45:09;7.85;;;3.20;;
25780;SDS011;13626;48.128;11.628;2022-11-23T16:47:49;9.50;;;3.58;;
25780;SDS011;13626;48.128;11.628;2022-11-23T16:50:17;7.15;;;2.78;;
25780;SDS011;13626;48.128;11.628;2022-11-23T16:52:44;5.65;;;3.22;;
25780;SDS011;13626;48.128;11.628;2022-11-23T16:55:11;4.45;;;2.67;;
25780;SDS011;13626;48.128;11.628;2022-11-23T16:57:38;5.30;;;2.60;;
25780;SDS011;13626;48.128;11.628;2022-11-23T17:00:06;7.65;;;3.08;;
25780;SDS011;13626;48.128;11.628;2022-11-23T17:02:34;4.07;;;2.08;;
25780;SDS011;13626;48.128;11.628;2022-11-23T17:05:01;3.03;;;2.20;;
25780;SDS011;13626;48.128;11.628;2022-11-23T17:07:29;7.72;;;2.50;;
25780;SDS011;13626;48.128;11.628;2022-11-23T17:09:56;4.53;;;2.30;;